KGTR/GTR METAR and TAF weather

Enter ICAO airport designator
Station Type Date Time Source
KGTR METAR 2019/04/25 07:56 UTC NOAA

KGTR 250756Z AUTO 18010KT 10SM CLR 19/17 A2988 RMK AO2 SLP117 T01890172


Station Type Date Time Source
KGTR Decoded METAR 2019/04/25 07:56 UTC NOAA

Columbus/West Point/Starkville, Golden Triangle Regional Airport, MS, United States (KGTR) 33-27N 088-35W
Apr 25, 2019 - 03:56 AM EDT / 2019.04.25 0756 UTC
Wind: from the S (180 degrees) at 12 MPH (10 KT):0
Visibility: 10 mile(s):0
Sky conditions: clear
Temperature: 66.0 F (18.9 C)
Dew Point: 63.0 F (17.2 C)
Relative Humidity: 89%
Pressure (altimeter): 29.88 in. Hg (1011 hPa)
ob: KGTR 250756Z AUTO 18010KT 10SM CLR 19/17 A2988 RMK AO2 SLP117 T01890172
cycle: 8

Station Type Date Time Source
KGTR TAF 2019/04/25 06:57 UTC NOAA

TAF KGTR 250554Z 2506/2606 18009KT P6SM SKC
FM251200 16006KT P6SM VCSH BKN025 BKN100
FM251500 16010G21KT P6SM -SHRA VCTS BKN015CB OVC090
FM251900 18017G24KT 2SM -TSRA BR OVC025CB
FM260000 22016G23KT 4SM -RA BR OVC050
FM260300 25010KT P6SM OVC050

Example: see airport list